Time;durP1;ratioP1;P1;durP2;ratioP2;P2;SDS_P1;SDS_P2;PMS_P1;PMS_P2;Temp;Humidity;BMP_temperature;BMP_pressure;BME280_temperature;BME280_humidity;BME280_pressure;Samples;Min_cycle;Max_cycle;Signal;HPM_P1;HPM_P2
2021/03/27 00:01:29;;;;;;;10.48;1.23;;;;;;;5.91;88.31;101049.34;5069589;28;20053;-46
2021/03/27 00:04:04;;;;;;;13.15;1.55;;;;;;;5.92;87.95;101043.53;5065286;28;20055;-48
2021/03/27 00:06:38;;;;;;;6.78;0.98;;;;;;;5.92;87.92;101043.53;5052400;28;20064;-50
2021/03/27 00:09:13;;;;;;;10.85;1.30;;;;;;;5.91;88.23;101041.03;5055938;28;20061;-48
2021/03/27 00:11:46;;;;;;;9.25;1.30;;;;;;;5.92;87.98;101034.41;5069426;28;20080;-48
2021/03/27 00:14:18;;;;;;;11.38;1.80;;;;;;;5.96;88.34;101038.31;5065740;28;20049;-49
2021/03/27 00:16:54;;;;;;;12.38;1.35;;;;;;;5.98;88.17;101025.88;5052756;28;20041;-48
2021/03/27 00:19:34;;;;;;;7.78;1.65;;;;;;;6.01;88.31;101030.03;5055836;28;20652;-50
2021/03/27 00:22:04;;;;;;;12.82;1.48;;;;;;;5.99;88.53;101037.78;5069825;28;20053;-48
2021/03/27 00:24:52;;;;;;;10.30;1.60;;;;;;;6.00;88.29;101042.19;5064831;28;20041;-51
2021/03/27 00:27:25;;;;;;;9.40;1.27;;;;;;;6.00;88.65;101039.44;5070926;28;20052;-50
2021/03/27 00:29:56;;;;;;;10.40;1.98;;;;;;;6.03;88.93;101036.13;5065819;28;20068;-51
2021/03/27 00:32:29;;;;;;;13.23;1.70;;;;;;;6.04;88.55;101043.34;5051207;28;20445;-50
2021/03/27 00:35:00;;;;;;;15.48;1.75;;;;;;;6.04;88.73;101044.19;5055751;28;20060;-52
2021/03/27 00:37:30;;;;;;;18.85;2.78;;;;;;;6.05;88.87;101033.94;5068823;28;20459;-49
2021/03/27 00:40:06;;;;;;;13.02;1.60;;;;;;;6.07;88.65;101037.28;5065013;28;20041;-50
2021/03/27 00:42:37;;;;;;;14.98;2.72;;;;;;;6.08;88.62;101041.72;5051958;28;20057;-52
2021/03/27 00:45:11;;;;;;;15.10;1.50;;;;;;;6.12;88.61;101040.94;5054902;28;20399;-56
2021/03/27 00:47:51;;;;;;;16.63;1.83;;;;;;;6.10;88.62;101045.91;5068626;28;20062;-53
2021/03/27 00:50:27;;;;;;;19.65;2.15;;;;;;;6.13;88.81;101031.53;5064201;28;20083;-54
2021/03/27 00:52:59;;;;;;;16.42;2.63;;;;;;;6.15;88.78;101034.03;5052895;28;20095;-56
2021/03/27 00:55:34;;;;;;;14.60;2.20;;;;;;;6.16;88.66;101036.53;5054383;28;20048;-53
2021/03/27 00:58:12;;;;;;;12.63;1.80;;;;;;;6.17;89.17;101045.69;5066387;28;20143;-56
2021/03/27 01:00:44;;;;;;;17.00;2.45;;;;;;;6.21;88.94;101052.34;5063639;28;20139;-54
2021/03/27 01:03:40;;;;;;;14.00;2.05;;;;;;;6.19;89.17;101060.91;5033961;28;20057;-55
2021/03/27 01:06:29;;;;;;;14.40;1.77;;;;;;;6.22;89.51;101060.41;5066711;28;20161;-54
2021/03/27 01:09:31;;;;;;;14.35;2.03;;;;;;;6.22;89.66;101054.84;5032275;28;20088;-55
2021/03/27 01:12:19;;;;;;;18.58;2.70;;;;;;;6.25;89.23;101047.09;5064022;28;20060;-52
2021/03/27 01:14:51;;;;;;;18.33;2.42;;;;;;;6.28;89.12;101044.66;5054939;28;20091;-51
2021/03/27 01:17:22;;;;;;;27.47;2.63;;;;;;;6.31;89.17;101063.53;5062212;28;20041;-52
2021/03/27 01:19:54;;;;;;;25.98;2.88;;;;;;;6.31;89.35;101065.44;5055200;28;20296;-51
2021/03/27 01:22:23;;;;;;;13.57;2.30;;;;;;;6.34;89.24;101054.69;5059928;28;20072;-54
2021/03/27 01:24:50;;;;;;;26.80;3.10;;;;;;;6.36;89.10;101055.25;5072568;28;20041;-55
2021/03/27 01:27:24;;;;;;;27.17;2.85;;;;;;;6.38;88.63;101049.44;5061038;28;20049;-55
2021/03/27 01:30:00;;;;;;;24.63;3.08;;;;;;;6.36;88.59;101054.41;5073270;28;20102;-52
2021/03/27 01:32:36;;;;;;;18.67;2.53;;;;;;;6.33;87.65;101063.25;5066725;28;20036;-52
2021/03/27 01:35:07;;;;;;;23.27;3.20;;;;;;;6.30;87.15;101053.53;5053470;28;20078;-55
2021/03/27 01:37:44;;;;;;;19.02;2.92;;;;;;;6.28;87.05;101055.72;5066565;28;20048;-52
2021/03/27 01:40:21;;;;;;;13.30;2.25;;;;;;;6.27;86.70;101056.00;5053881;28;20140;-54
2021/03/27 01:42:59;;;;;;;22.38;3.22;;;;;;;6.24;86.48;101049.03;5065425;28;20416;-54
2021/03/27 01:46:07;;;;;;;17.88;2.70;;;;;;;6.22;86.18;101059.56;5053922;28;20068;-52
2021/03/27 01:48:44;;;;;;;17.30;2.33;;;;;;;6.19;85.72;101068.44;5042306;28;20049;-51
2021/03/27 01:51:24;;;;;;;15.25;2.63;;;;;;;6.21;85.79;101067.03;5056076;28;20082;-50
2021/03/27 01:53:57;;;;;;;17.95;3.40;;;;;;;6.21;85.83;101064.25;5062596;28;20041;-51
2021/03/27 01:56:38;;;;;;;20.23;3.10;;;;;;;6.25;86.04;101060.97;5069956;28;20044;-54
2021/03/27 01:59:11;;;;;;;26.33;3.40;;;;;;;6.23;86.47;101069.53;5051523;28;20072;-53
2021/03/27 02:01:43;;;;;;;22.65;3.20;;;;;;;6.25;85.92;101075.66;5070012;28;20041;-55
2021/03/27 02:04:16;;;;;;;18.10;2.80;;;;;;;6.26;85.84;101080.09;5064079;28;20551;-49
2021/03/27 02:06:48;;;;;;;18.40;2.92;;;;;;;6.28;85.93;101091.75;5055672;28;20411;-52
2021/03/27 02:09:24;;;;;;;21.25;2.80;;;;;;;6.27;85.48;101084.53;5062193;28;20048;-54
2021/03/27 02:12:02;;;;;;;18.23;2.75;;;;;;;6.23;85.17;101086.16;5071068;28;20051;-52
2021/03/27 02:14:36;;;;;;;16.05;2.33;;;;;;;6.20;84.23;101092.22;5063388;28;20128;-51
2021/03/27 02:17:09;;;;;;;16.98;2.35;;;;;;;6.15;83.02;101089.44;5054881;28;20079;-50
2021/03/27 02:19:58;;;;;;;21.45;3.08;;;;;;;6.07;81.92;101085.22;5062008;28;20040;-53
2021/03/27 02:22:29;;;;;;;17.60;2.10;;;;;;;6.04;81.85;101094.03;5068794;28;20044;-51
2021/03/27 02:25:19;;;;;;;22.73;2.30;;;;;;;6.02;81.51;101096.25;5066164;28;20053;-53
2021/03/27 02:27:57;;;;;;;12.63;2.10;;;;;;;5.98;81.07;101108.13;5067521;28;20049;-50
2021/03/27 02:30:28;;;;;;;13.75;1.95;;;;;;;6.02;80.84;101101.78;5061965;28;20053;-52
2021/03/27 02:33:15;;;;;;;13.73;2.40;;;;;;;6.06;80.66;101107.63;5057910;28;20102;-51
2021/03/27 02:35:53;;;;;;;20.30;3.00;;;;;;;6.08;79.59;101113.75;5065206;28;20071;-53
2021/03/27 02:38:33;;;;;;;17.35;2.50;;;;;;;6.15;79.41;101111.59;5065418;28;20068;-53
2021/03/27 02:41:23;;;;;;;16.88;2.15;;;;;;;6.15;78.98;101111.59;5059796;28;20098;-51
2021/03/27 02:43:56;;;;;;;22.17;2.55;;;;;;;6.17;78.73;101115.78;5057667;28;20045;-52
2021/03/27 02:46:30;;;;;;;12.63;2.17;;;;;;;6.20;78.10;101119.94;5067209;28;20133;-51
2021/03/27 02:49:31;;;;;;;20.55;3.03;;;;;;;6.25;78.23;101122.75;5067506;28;20391;-53
2021/03/27 02:52:07;;;;;;;11.32;2.15;;;;;;;6.22;77.46;101117.75;5053915;28;20468;-50
2021/03/27 02:54:48;;;;;;;10.45;2.35;;;;;;;6.25;77.29;101117.22;5057428;28;20116;-49
2021/03/27 02:57:21;;;;;;;15.05;2.83;;;;;;;6.25;76.67;101117.22;5071145;28;20139;-52
2021/03/27 02:59:57;;;;;;;15.63;2.05;;;;;;;6.28;76.94;101110.31;5066465;28;20443;-51
2021/03/27 03:02:36;;;;;;;19.70;2.78;;;;;;;6.28;77.35;101115.88;5053421;28;20068;-50
2021/03/27 03:05:16;;;;;;;17.95;2.40;;;;;;;6.28;77.38;101116.69;5056865;28;20048;-49
2021/03/27 03:07:51;;;;;;;11.85;1.95;;;;;;;6.30;78.14;101122.81;5031988;28;20127;-51
2021/03/27 03:10:26;;;;;;;17.58;2.50;;;;;;;6.28;78.49;101115.88;5054169;28;20461;-52
2021/03/27 03:13:06;;;;;;;17.48;2.63;;;;;;;6.25;78.56;101122.75;5031958;28;20096;-52
2021/03/27 03:15:40;;;;;;;15.63;3.20;;;;;;;6.19;78.76;101127.41;5054448;28;20494;-51
2021/03/27 03:18:17;;;;;;;18.48;3.10;;;;;;;6.20;78.81;101122.72;5032501;28;20077;-52
2021/03/27 03:20:49;;;;;;;16.90;2.55;;;;;;;6.19;78.63;101129.38;5054058;28;20065;-50
2021/03/27 03:23:27;;;;;;;15.88;2.47;;;;;;;6.19;78.61;101123.84;5032446;28;20057;-50
2021/03/27 03:26:02;;;;;;;21.42;3.05;;;;;;;6.22;78.59;101134.38;5064106;28;20048;-49
2021/03/27 03:28:38;;;;;;;13.98;2.40;;;;;;;6.23;78.73;101136.03;5030142;28;20080;-49
2021/03/27 03:31:16;;;;;;;13.48;2.20;;;;;;;6.22;78.74;101134.38;5054460;28;20052;-48
2021/03/27 03:34:08;;;;;;;19.77;2.78;;;;;;;6.22;78.63;101146.28;5031646;28;20053;-52
2021/03/27 03:36:46;;;;;;;10.43;2.35;;;;;;;6.19;78.09;101135.72;5058245;28;20049;-48
2021/03/27 03:39:30;;;;;;;18.17;2.67;;;;;;;6.20;78.04;101139.34;5070806;28;20048;-48
2021/03/27 03:42:07;;;;;;;12.18;2.20;;;;;;;6.22;78.22;101156.53;5057548;28;20551;-49
2021/03/27 03:44:50;;;;;;;17.27;2.88;;;;;;;6.22;77.98;101153.78;5071031;28;20048;-49
2021/03/27 03:47:19;;;;;;;;;;;;;;;6.15;77.98;101155.94;5058117;28;20114;-48
2021/03/27 03:50:16;;;;;;;14.95;2.67;;;;;;;6.13;78.04;101158.13;5052609;28;20388;-50
2021/03/27 03:53:02;;;;;;;14.20;2.20;;;;;;;6.18;78.03;101161.81;5060336;28;20444;-51
2021/03/27 03:55:40;;;;;;;17.05;2.20;;;;;;;6.17;78.08;101162.06;5066709;28;20036;-49
2021/03/27 03:58:21;;;;;;;13.85;2.35;;;;;;;6.16;77.26;101165.94;5049755;28;20060;-49
2021/03/27 04:00:57;;;;;;;13.98;2.17;;;;;;;6.17;77.29;101164.81;5066219;28;20421;-49
2021/03/27 04:03:33;;;;;;;18.58;2.47;;;;;;;6.16;77.48;101179.78;5051448;28;20083;-49
2021/03/27 04:06:03;;;;;;;18.65;3.58;;;;;;;6.17;77.46;101170.38;5065843;28;20079;-48
2021/03/27 04:08:40;;;;;;;14.68;2.55;;;;;;;6.13;77.69;101185.84;5061914;28;20056;-48
2021/03/27 04:11:17;;;;;;;13.95;2.58;;;;;;;5.95;78.37;101195.34;5055117;28;20041;-51
2021/03/27 04:13:52;;;;;;;14.23;2.40;;;;;;;5.78;78.87;101181.56;5051516;28;20446;-49
2021/03/27 04:16:26;;;;;;;15.68;2.67;;;;;;;5.64;79.65;101171.97;5065183;28;20072;-54
2021/03/27 04:18:57;;;;;;;16.65;2.55;;;;;;;5.59;80.65;101187.69;5051225;28;20070;-56
2021/03/27 04:21:31;;;;;;;17.10;2.78;;;;;;;5.61;81.19;101188.25;5066782;28;20493;-51
2021/03/27 04:24:03;;;;;;;21.35;3.17;;;;;;;5.63;81.09;101186.91;5049507;28;20094;-53
2021/03/27 04:26:46;;;;;;;19.73;3.35;;;;;;;5.67;81.06;101190.84;5059008;28;20045;-50
2021/03/27 04:29:31;;;;;;;19.40;2.85;;;;;;;5.73;81.19;101203.66;5051097;28;20040;-55
2021/03/27 04:32:25;;;;;;;12.05;2.40;;;;;;;5.69;79.39;101196.94;5065093;28;20090;-53
2021/03/27 04:35:01;;;;;;;16.35;3.45;;;;;;;5.68;79.38;101197.22;5057045;28;20056;-50
2021/03/27 04:37:42;;;;;;;19.25;2.80;;;;;;;5.72;78.64;101212.22;5055586;28;20052;-49
2021/03/27 04:40:16;;;;;;;21.90;2.83;;;;;;;5.77;78.75;101212.28;5070169;28;20083;-49
2021/03/27 04:42:48;;;;;;;18.95;2.88;;;;;;;5.78;78.78;101217.56;5069386;28;20083;-49
2021/03/27 04:45:21;;;;;;;16.02;3.17;;;;;;;5.75;77.98;101222.78;5060534;28;20519;-51
2021/03/27 04:48:02;;;;;;;19.90;2.40;;;;;;;5.73;77.61;101216.66;5059852;28;20072;-47
2021/03/27 04:51:03;;;;;;;12.73;2.05;;;;;;;5.72;78.01;101220.53;5071228;28;20131;-48
2021/03/27 04:53:36;;;;;;;16.57;3.00;;;;;;;5.72;77.29;101231.59;5069544;28;20060;-50
2021/03/27 04:56:10;;;;;;;16.10;2.45;;;;;;;5.72;76.51;101235.19;5057099;28;20446;-51
2021/03/27 04:58:45;;;;;;;16.40;2.53;;;;;;;5.73;76.03;101236.03;5058930;28;20571;-51
2021/03/27 05:01:20;;;;;;;17.80;2.67;;;;;;;5.75;76.56;101233.84;5072675;28;20128;-50
2021/03/27 05:03:56;;;;;;;17.23;2.40;;;;;;;5.78;76.86;101248.03;5069770;28;20142;-49
2021/03/27 05:06:35;;;;;;;12.82;2.35;;;;;;;5.77;76.55;101254.66;5055980;28;20047;-51
2021/03/27 05:09:30;;;;;;;19.98;2.47;;;;;;;5.76;76.58;101264.06;5059349;28;20096;-50
2021/03/27 05:12:00;;;;;;;17.42;2.50;;;;;;;5.69;75.95;101268.94;5034839;28;20046;-49
2021/03/27 05:14:43;;;;;;;18.77;2.97;;;;;;;5.67;75.46;101267.50;5055741;28;20052;-53
2021/03/27 05:17:16;;;;;;;22.10;3.63;;;;;;;5.60;74.91;101275.16;5074577;28;20094;-51
2021/03/27 05:19:50;;;;;;;14.27;2.25;;;;;;;5.58;74.96;101280.16;5066636;28;20094;-52
2021/03/27 05:22:31;;;;;;;21.95;3.20;;;;;;;5.59;75.47;101274.34;5034175;28;20418;-56
2021/03/27 05:25:14;;;;;;;15.07;2.97;;;;;;;5.61;75.92;101282.38;5058926;28;20055;-52
2021/03/27 05:27:45;;;;;;;17.08;2.35;;;;;;;5.63;76.27;101289.34;5053400;28;20073;-56
2021/03/27 05:30:24;;;;;;;17.58;3.13;;;;;;;5.59;74.96;101290.97;5059179;28;20049;-53
2021/03/27 05:33:23;;;;;;;14.88;2.70;;;;;;;5.55;74.45;101300.88;5072459;28;20060;-56
2021/03/27 05:35:56;;;;;;;20.33;3.17;;;;;;;5.51;74.57;101308.84;5062045;28;20132;-53
2021/03/27 05:38:35;;;;;;;18.23;2.50;;;;;;;5.49;73.71;101307.41;5073391;28;20080;-54
2021/03/27 05:41:48;;;;;;;16.95;2.88;;;;;;;5.46;73.11;101302.38;5061668;28;20109;-57
2021/03/27 05:45:15;;;;;;;22.45;3.15;;;;;;;5.47;73.43;101318.72;5068785;28;20135;-52
2021/03/27 05:48:16;;;;;;;21.42;3.20;;;;;;;5.49;73.99;101326.78;5027843;28;20049;-58
2021/03/27 05:51:03;;;;;;;27.23;3.45;;;;;;;5.49;73.38;101326.78;5026295;28;20053;-54
2021/03/27 05:53:57;;;;;;;24.02;3.88;;;;;;;5.52;73.25;101342.88;5026380;28;20100;-57
2021/03/27 05:57:03;;;;;;;22.50;2.80;;;;;;;5.51;71.98;101343.97;5065365;28;20072;-59
2021/03/27 05:59:56;;;;;;;17.10;2.65;;;;;;;5.50;72.34;101353.38;5056088;28;20102;-57
2021/03/27 06:02:43;;;;;;;20.13;3.15;;;;;;;5.52;71.66;101362.25;5053776;28;20106;-55
2021/03/27 06:05:41;;;;;;;24.55;3.47;;;;;;;5.50;71.31;101361.69;5068179;28;20546;-54
2021/03/27 06:08:28;;;;;;;19.38;3.20;;;;;;;5.51;72.11;101371.66;5058289;28;20041;-56
2021/03/27 06:11:07;;;;;;;21.25;3.20;;;;;;;5.53;71.70;101375.84;5058026;28;20041;-57
2021/03/27 06:14:05;;;;;;;22.27;3.35;;;;;;;5.53;70.39;101381.38;5071018;28;20047;-57
2021/03/27 06:16:45;;;;;;;22.63;3.30;;;;;;;5.51;70.04;101388.28;5067433;28;20075;-54
2021/03/27 06:19:38;;;;;;;17.55;3.08;;;;;;;5.54;70.34;101387.78;5033495;28;20050;-57
2021/03/27 06:22:19;;;;;;;19.23;2.90;;;;;;;5.62;70.67;101405.84;5059815;28;20048;-58
2021/03/27 06:24:58;;;;;;;16.60;2.28;;;;;;;5.64;69.86;101398.13;5071532;28;20083;-54
2021/03/27 06:27:48;;;;;;;18.73;2.58;;;;;;;5.70;70.06;101410.97;5065016;28;20037;-54
2021/03/27 06:30:38;;;;;;;21.67;3.03;;;;;;;5.69;69.66;101414.84;5053946;28;20100;-60
2021/03/27 06:33:50;;;;;;;16.77;3.28;;;;;;;5.68;69.67;101418.69;5062877;28;20045;-56
2021/03/27 06:36:29;;;;;;;14.50;2.28;;;;;;;5.64;70.32;101420.28;5057825;28;20052;-53
2021/03/27 06:39:40;;;;;;;14.85;3.00;;;;;;;5.66;69.94;101424.50;5065688;28;20133;-55
2021/03/27 06:42:43;;;;;;;18.58;3.08;;;;;;;5.70;70.59;101430.38;5019903;28;20163;-54
2021/03/27 06:45:33;;;;;;;15.77;2.53;;;;;;;5.67;69.72;101419.78;5008234;28;20045;-56
2021/03/27 06:48:34;;;;;;;16.73;2.50;;;;;;;5.64;69.61;101434.97;5064388;28;20097;-51
2021/03/27 06:51:30;;;;;;;15.55;2.60;;;;;;;5.76;70.27;101438.50;5053421;28;20056;-54
2021/03/27 06:54:17;;;;;;;16.00;2.35;;;;;;;5.79;69.92;101443.53;5051063;28;20052;-53
2021/03/27 06:56:58;;;;;;;16.52;2.75;;;;;;;5.86;70.81;101443.34;5066925;28;20052;-55
2021/03/27 06:59:55;;;;;;;17.95;2.50;;;;;;;5.90;70.01;101446.50;5059934;28;20065;-53
2021/03/27 07:02:55;;;;;;;21.60;3.15;;;;;;;5.98;69.76;101465.47;5055700;28;20072;-55
2021/03/27 07:06:02;;;;;;;17.90;3.00;;;;;;;6.23;70.06;101461.09;5049955;28;20040;-51
2021/03/27 07:08:49;;;;;;;15.82;2.35;;;;;;;6.35;69.52;101472.09;5052389;28;20045;-52
2021/03/27 07:11:47;;;;;;;19.42;2.92;;;;;;;6.48;68.25;101465.31;5047784;28;20049;-54
2021/03/27 07:14:48;;;;;;;15.48;2.75;;;;;;;6.52;67.80;101478.41;5049736;28;20107;-53
2021/03/27 07:17:32;;;;;;;18.02;2.55;;;;;;;6.48;67.99;101477.25;5048777;28;20049;-54
2021/03/27 07:20:18;;;;;;;17.40;2.40;;;;;;;6.47;67.96;101491.38;5052253;28;20525;-56
2021/03/27 07:23:01;;;;;;;15.98;2.35;;;;;;;6.62;67.68;101497.09;5065569;28;20072;-53
2021/03/27 07:25:55;;;;;;;18.77;2.50;;;;;;;6.78;67.83;101498.16;5055620;28;20041;-53
2021/03/27 07:28:43;;;;;;;19.40;2.95;;;;;;;6.88;67.55;101506.59;5056059;28;20044;-51
2021/03/27 07:31:34;;;;;;;16.77;2.25;;;;;;;6.80;65.38;101499.56;5047629;28;20124;-53
2021/03/27 07:34:28;;;;;;;18.20;2.80;;;;;;;6.93;66.09;101517.75;5048923;28;20095;-55
2021/03/27 07:37:36;;;;;;;16.95;2.75;;;;;;;7.07;65.15;101529.28;5048946;28;20460;-54
2021/03/27 07:40:17;;;;;;;14.43;2.42;;;;;;;6.91;66.15;101525.50;5048297;28;20155;-53
2021/03/27 07:42:56;;;;;;;14.38;2.22;;;;;;;6.73;66.15;101534.16;5049476;28;20464;-50
2021/03/27 07:46:04;;;;;;;14.95;2.40;;;;;;;6.67;66.10;101529.63;5051925;28;20132;-54
2021/03/27 07:48:52;;;;;;;14.45;2.70;;;;;;;7.04;64.99;101536.19;5030493;28;20057;-52
2021/03/27 07:51:50;;;;;;;13.15;2.28;;;;;;;7.04;64.10;101558.41;5051529;28;20049;-54
2021/03/27 07:54:53;;;;;;;13.25;2.38;;;;;;;7.08;64.61;101544.84;5052032;28;20052;-47
2021/03/27 07:57:53;;;;;;;15.38;2.65;;;;;;;7.45;63.03;101559.69;5048373;28;20047;-47
2021/03/27 08:00:40;;;;;;;15.90;2.30;;;;;;;7.63;61.58;101558.50;5054122;28;20521;-51
2021/03/27 08:03:35;;;;;;;12.15;2.17;;;;;;;7.47;62.43;101568.63;5045648;28;20053;-48
2021/03/27 08:06:11;;;;;;;14.40;2.20;;;;;;;7.17;62.22;101577.44;5051183;28;20048;-50
2021/03/27 08:09:12;;;;;;;13.30;2.47;;;;;;;6.87;62.00;101577.03;5047025;28;20052;-49
2021/03/27 08:12:05;;;;;;;17.17;2.45;;;;;;;6.65;63.36;101585.34;5047841;28;20098;-50
2021/03/27 08:15:05;;;;;;;11.25;2.47;;;;;;;6.75;63.75;101595.75;5044616;28;20049;-48
2021/03/27 08:17:38;;;;;;;12.60;2.10;;;;;;;6.94;64.60;101591.56;5025127;28;20157;-47
2021/03/27 08:20:32;;;;;;;13.82;2.45;;;;;;;7.16;63.80;101600.75;5048249;28;20560;-49
2021/03/27 08:23:20;;;;;;;16.08;2.55;;;;;;;7.36;63.56;101613.19;5048911;28;20045;-48
2021/03/27 08:26:06;;;;;;;15.35;2.10;;;;;;;7.36;62.38;101607.66;5056036;28;20067;-47
2021/03/27 08:29:06;;;;;;;15.98;2.08;;;;;;;7.52;63.46;101627.00;5045987;28;20111;-50
2021/03/27 08:32:25;;;;;;;15.23;2.42;;;;;;;7.61;62.16;101627.34;5057779;28;20048;-51
2021/03/27 08:35:37;;;;;;;17.05;3.00;;;;;;;7.88;62.04;101633.78;5046208;28;20390;-49
2021/03/27 08:38:28;;;;;;;12.77;2.13;;;;;;;8.35;62.13;101640.63;5047396;28;20049;-49
2021/03/27 08:41:20;;;;;;;14.27;2.45;;;;;;;8.46;60.77;101648.78;5056798;28;20052;-52
2021/03/27 08:44:26;;;;;;;17.23;2.10;;;;;;;8.26;61.22;101649.41;5049648;28;20036;-47
2021/03/27 08:47:15;;;;;;;11.70;2.25;;;;;;;8.14;61.59;101661.81;5054735;28;20574;-50
2021/03/27 08:50:27;;;;;;;12.75;2.47;;;;;;;8.52;59.39;101658.84;5046460;28;20414;-48
2021/03/27 08:53:28;;;;;;;15.52;2.83;;;;;;;9.02;59.06;101656.69;5050625;28;20076;-48
2021/03/27 08:56:38;;;;;;;13.82;2.58;;;;;;;9.44;58.26;101670.53;5055401;28;20048;-48
2021/03/27 08:59:35;;;;;;;13.10;1.98;;;;;;;9.71;57.51;101682.38;5047770;28;20098;-51
2021/03/27 09:02:31;;;;;;;11.02;2.35;;;;;;;10.10;57.03;101690.28;5050348;28;20118;-49
2021/03/27 09:05:29;;;;;;;11.20;2.10;;;;;;;10.20;54.86;101699.50;5047555;28;20125;-49
2021/03/27 09:08:30;;;;;;;14.63;2.70;;;;;;;10.29;55.74;101705.41;5051345;28;20057;-49
2021/03/27 09:11:17;;;;;;;15.25;2.78;;;;;;;10.67;55.69;101701.25;5049190;28;20093;-47
2021/03/27 09:14:21;;;;;;;11.25;2.05;;;;;;;10.40;53.19;101723.81;5045808;28;20151;-50
2021/03/27 09:17:12;;;;;;;12.07;1.88;;;;;;;9.90;55.71;101721.72;5051147;28;20102;-47
2021/03/27 09:20:29;;;;;;;8.57;1.70;;;;;;;10.00;54.16;101741.25;5048838;28;20458;-51
2021/03/27 09:23:20;;;;;;;13.23;2.63;;;;;;;10.22;56.04;101727.97;5023418;28;20049;-52
2021/03/27 09:26:16;;;;;;;15.55;2.60;;;;;;;10.87;55.71;101723.56;5053808;28;20049;-52
2021/03/27 09:28:54;;;;;;;9.30;2.05;;;;;;;11.38;54.15;101737.47;5054277;28;20402;-52
2021/03/27 09:31:51;;;;;;;11.48;2.78;;;;;;;11.62;51.74;101737.66;5053546;28;20083;-47
2021/03/27 09:34:33;;;;;;;14.40;2.53;;;;;;;11.54;52.97;101744.69;5053271;28;20110;-49
2021/03/27 09:37:15;;;;;;;12.30;2.30;;;;;;;11.20;53.38;101741.66;5053552;28;20037;-50
2021/03/27 09:39:50;;;;;;;16.85;2.70;;;;;;;11.28;53.97;101757.03;5051321;28;20049;-47
2021/03/27 09:42:51;;;;;;;12.43;2.22;;;;;;;10.79;53.42;101766.00;5057220;28;20103;-53
2021/03/27 09:45:27;;;;;;;12.05;2.20;;;;;;;10.22;55.82;101777.34;5050840;28;20051;-46
2021/03/27 09:48:16;;;;;;;10.02;2.28;;;;;;;9.94;56.19;101781.41;5054768;28;20535;-48
2021/03/27 09:50:51;;;;;;;12.43;2.40;;;;;;;9.52;56.75;101773.13;5053150;28;20417;-47
2021/03/27 09:53:32;;;;;;;14.68;2.45;;;;;;;9.35;57.32;101780.81;5054039;28;20094;-51
2021/03/27 09:56:05;;;;;;;19.30;2.78;;;;;;;9.29;57.89;101779.94;5053672;28;20047;-50
2021/03/27 09:59:10;;;;;;;16.13;2.72;;;;;;;9.25;58.03;101790.78;5053286;28;20060;-49
2021/03/27 10:01:42;;;;;;;10.07;1.75;;;;;;;8.84;58.77;101799.91;5048321;28;20466;-49
2021/03/27 10:04:19;;;;;;;10.90;1.83;;;;;;;8.61;60.01;101803.84;5055811;28;20064;-49
2021/03/27 10:06:56;;;;;;;18.63;3.45;;;;;;;8.38;60.96;101799.47;5049902;28;20095;-49
2021/03/27 10:09:37;;;;;;;12.93;2.13;;;;;;;8.15;61.58;101810.84;5052649;28;20505;-53
2021/03/27 10:12:12;;;;;;;19.83;3.15;;;;;;;8.02;62.09;101817.63;5046164;28;20045;-50
2021/03/27 10:14:49;;;;;;;15.27;2.35;;;;;;;7.91;62.25;101819.44;5055371;28;20040;-50
2021/03/27 10:17:24;;;;;;;15.30;2.42;;;;;;;7.96;62.83;101832.56;5051929;28;20045;-51
2021/03/27 10:19:57;;;;;;;17.48;2.78;;;;;;;7.99;61.90;101832.06;5056867;28;20045;-50
2021/03/27 10:22:34;;;;;;;14.05;2.40;;;;;;;8.05;62.08;101841.28;5051755;28;20501;-49
2021/03/27 10:25:18;;;;;;;18.63;3.20;;;;;;;8.09;62.51;101839.66;5053995;28;20125;-51
2021/03/27 10:27:55;;;;;;;16.15;3.13;;;;;;;8.05;62.64;101841.28;5050085;28;20049;-51
2021/03/27 10:30:30;;;;;;;13.50;2.55;;;;;;;7.99;62.14;101845.97;5055953;28;20045;-46
2021/03/27 10:33:07;;;;;;;20.25;3.08;;;;;;;8.19;62.08;101848.16;5050925;28;20049;-49
2021/03/27 10:35:58;;;;;;;16.73;2.53;;;;;;;8.49;61.25;101862.44;5056528;28;20485;-52
2021/03/27 10:38:47;;;;;;;15.77;3.00;;;;;;;8.47;60.84;101855.44;5051213;28;20041;-49
2021/03/27 10:41:58;;;;;;;14.55;2.63;;;;;;;8.35;62.22;101866.72;5048710;28;20076;-52
2021/03/27 10:44:34;;;;;;;15.15;2.67;;;;;;;8.53;61.43;101877.50;5053147;28;20033;-48
2021/03/27 10:47:05;;;;;;;17.17;2.67;;;;;;;8.61;61.25;101877.03;5045083;28;20143;-49
2021/03/27 10:49:44;;;;;;;18.20;2.42;;;;;;;8.77;61.26;101882.78;5049571;28;20129;-48
2021/03/27 10:52:50;;;;;;;13.23;2.70;;;;;;;8.94;60.52;101887.13;5049902;28;20084;-47
2021/03/27 10:56:06;;;;;;;14.55;2.70;;;;;;;8.93;59.97;101901.31;5054514;28;20228;-48
2021/03/27 10:58:46;;;;;;;18.00;2.75;;;;;;;8.97;60.77;101905.25;5046709;28;20064;-47
2021/03/27 11:01:46;;;;;;;18.70;3.17;;;;;;;9.31;59.81;101917.84;5056481;28;20453;-50
2021/03/27 11:04:52;;;;;;;15.73;2.88;;;;;;;9.15;58.92;101917.97;5047723;28;20056;-49
2021/03/27 11:07:53;;;;;;;15.63;2.63;;;;;;;9.03;60.13;101933.97;5054383;28;20098;-48
2021/03/27 11:11:02;;;;;;;16.30;2.63;;;;;;;9.21;58.75;101936.38;5065025;28;20054;-55
2021/03/27 11:14:02;;;;;;;15.75;3.00;;;;;;;9.54;59.37;101938.09;5051573;28;20075;-52
2021/03/27 11:16:52;;;;;;;17.88;3.28;;;;;;;9.27;58.38;101943.69;5054506;28;20047;-50
2021/03/27 11:20:02;;;;;;;15.55;2.67;;;;;;;9.02;59.21;101949.00;5047975;28;20049;-50
2021/03/27 11:22:58;;;;;;;17.58;3.08;;;;;;;8.95;60.65;101958.41;5012075;28;20053;-47
2021/03/27 11:26:02;;;;;;;24.48;3.95;;;;;;;8.99;60.60;101959.53;5053787;28;20071;-48
2021/03/27 11:28:30;;;;;;;;;;;;;;;8.83;60.15;101970.78;5045663;28;20044;-52
2021/03/27 11:31:31;;;;;;;18.45;2.67;;;;;;;8.64;60.75;101967.50;5052998;28;19952;-49
2021/03/27 11:34:10;;;;;;;14.23;2.80;;;;;;;8.49;61.66;101970.94;5041783;28;20045;-49
2021/03/27 11:36:43;;;;;;;21.42;3.65;;;;;;;8.45;61.69;101991.16;5049352;28;20061;-52
2021/03/27 11:39:20;;;;;;;15.30;3.15;;;;;;;8.41;61.69;101987.19;5049110;28;20103;-51
2021/03/27 11:41:59;;;;;;;13.98;2.80;;;;;;;8.39;61.87;102004.19;5058494;28;20044;-50
2021/03/27 11:44:51;;;;;;;12.20;2.53;;;;;;;8.24;62.53;102004.75;5051320;28;20075;-50
2021/03/27 11:47:30;;;;;;;16.75;2.90;;;;;;;8.09;63.82;102006.47;5051247;28;20052;-51
2021/03/27 11:50:10;;;;;;;20.35;3.63;;;;;;;8.02;64.78;102009.41;5053362;28;20045;-47
2021/03/27 11:52:46;;;;;;;27.50;3.80;;;;;;;8.16;65.13;102009.91;5048938;28;20490;-46
2021/03/27 11:55:23;;;;;;;17.15;3.45;;;;;;;8.30;64.28;102022.34;5051383;28;20045;-48
2021/03/27 11:57:58;;;;;;;16.00;3.15;;;;;;;8.52;63.45;102020.47;5057470;28;20045;-49
2021/03/27 12:03:33;;;;;;;17.88;3.33;;;;;;;8.44;63.39;102032.03;5055232;28;19924;-50
2021/03/27 12:06:18;;;;;;;18.65;3.20;;;;;;;8.44;62.06;102034.81;5049846;28;20045;-49
2021/03/27 12:08:55;;;;;;;18.33;3.70;;;;;;;8.31;63.05;102040.72;5052900;28;20162;-54
2021/03/27 12:11:44;;;;;;;19.55;3.00;;;;;;;8.22;63.89;102051.44;5049408;28;20053;-47
2021/03/27 12:14:16;;;;;;;21.27;3.28;;;;;;;8.19;64.42;102054.72;5050577;28;20428;-49
2021/03/27 12:16:57;;;;;;;21.45;3.35;;;;;;;8.14;64.00;102051.03;5049983;28;20056;-52
2021/03/27 12:19:32;;;;;;;18.88;3.30;;;;;;;8.19;64.27;102065.03;5053688;28;20068;-52
2021/03/27 12:22:09;;;;;;;19.27;3.13;;;;;;;8.52;64.37;102064.16;5049735;28;20045;-51
2021/03/27 12:24:43;;;;;;;19.98;4.20;;;;;;;8.84;63.95;102064.31;5049533;28;20041;-48
2021/03/27 12:27:23;;;;;;;13.00;2.60;;;;;;;9.13;62.39;102065.81;5047382;28;20053;-48
2021/03/27 12:30:00;;;;;;;24.85;3.70;;;;;;;9.42;61.71;102071.97;5051082;28;20087;-49
2021/03/27 12:32:37;;;;;;;23.70;4.03;;;;;;;9.62;61.59;102076.91;5051071;28;20060;-47
2021/03/27 12:35:15;;;;;;;16.65;3.00;;;;;;;9.51;60.81;102086.28;5052728;28;20053;-47
2021/03/27 12:37:54;;;;;;;26.23;3.83;;;;;;;9.41;61.29;102078.66;5047421;28;20063;-50
2021/03/27 12:40:26;;;;;;;16.42;3.10;;;;;;;9.33;60.77;102091.13;5051360;28;20075;-49
2021/03/27 12:43:04;;;;;;;25.63;4.03;;;;;;;9.33;60.51;102087.47;5050752;28;20048;-50
2021/03/27 12:45:35;;;;;;;17.13;3.28;;;;;;;9.28;60.87;102096.63;5052779;28;20516;-50